createdAt,value
2023-04-29T00:04:01.350Z,98.44
2023-04-29T00:06:02.984Z,98.44
2023-04-29T00:10:05.044Z,98.04
2023-04-29T00:14:08.634Z,97.92
2023-04-29T00:16:09.950Z,98.14
2023-04-29T00:20:13.020Z,98.68
2023-04-29T00:22:13.892Z,98.63
2023-04-29T00:24:15.096Z,98.91
2023-04-29T00:26:16.329Z,98.91
2023-04-29T00:30:18.457Z,98.88
2023-04-29T00:32:19.564Z,98.92
2023-04-29T00:36:21.780Z,99.21
2023-04-29T00:38:23.396Z,99.22
2023-04-29T00:42:26.254Z,99.21
2023-04-29T00:46:28.915Z,99.13
2023-04-29T00:48:30.312Z,99.06
2023-04-29T00:52:32.875Z,99.17
2023-04-29T00:56:35.092Z,99.13
2023-04-29T00:58:36.775Z,99.12
2023-04-29T01:02:38.964Z,99.19
2023-04-29T01:04:40.270Z,99.2
2023-04-29T01:08:42.933Z,99.13
2023-04-29T01:10:44.677Z,99.06
2023-04-29T01:14:48.087Z,99.03
2023-04-29T01:16:49.143Z,99.2
2023-04-29T01:18:50.781Z,99.19
2023-04-29T01:20:52.586Z,99.21
2023-04-29T01:24:54.596Z,99.14
2023-04-29T01:26:56.360Z,98.88
2023-04-29T01:30:59.167Z,99.32
2023-04-29T01:35:01.979Z,99.29
2023-04-29T01:37:03.324Z,99.29
2023-04-29T01:41:06.602Z,99.29
2023-04-29T01:45:09.766Z,99.38
2023-04-29T01:47:10.875Z,99.28
2023-04-29T01:51:14.173Z,99.18
2023-04-29T01:53:16.051Z,99.2
2023-04-29T01:57:18.430Z,99.26
2023-04-29T02:01:20.898Z,99.35
2023-04-29T02:03:22.667Z,99.42
2023-04-29T02:07:25.652Z,99
2023-04-29T02:09:27.206Z,99.09
2023-04-29T02:13:30.375Z,99.19
2023-04-29T02:17:34.140Z,99.26
2023-04-29T02:19:35.811Z,99.36
2023-04-29T02:23:39.141Z,99.48
2023-04-29T02:27:41.454Z,99.45
2023-04-29T02:29:42.636Z,99.43
2023-04-29T02:33:45.749Z,99.51
2023-04-29T02:35:46.825Z,99.48
2023-04-29T02:39:49.631Z,99.51
2023-04-29T02:43:52.626Z,99.65
2023-04-29T02:45:53.935Z,99.64
2023-04-29T02:49:56.693Z,99.57
2023-04-29T02:51:57.943Z,99.56
2023-04-29T02:56:00.590Z,99.56
2023-04-29T03:00:03.388Z,99.6
2023-04-29T03:02:05.150Z,99.6
2023-04-29T03:06:08.051Z,99.44
2023-04-29T03:10:10.990Z,99.47
2023-04-29T03:12:11.981Z,99.5
2023-04-29T03:16:14.362Z,99.54
2023-04-29T03:18:24.971Z,99.55
2023-04-29T03:22:18.972Z,99.58
2023-04-29T03:26:21.631Z,99.58
2023-04-29T03:28:22.868Z,99.61
2023-04-29T03:32:25.435Z,99.62
2023-04-29T03:34:27.063Z,99.45
2023-04-29T03:39:13.290Z,99.53
2023-04-29T03:43:16.693Z,99.68
2023-04-29T03:49:20.974Z,99.71
2023-04-29T03:53:24.474Z,99.81
2023-04-29T03:55:26.186Z,99.84
2023-04-29T03:57:27.423Z,99.84
2023-04-29T03:59:29.277Z,99.87
2023-04-29T04:03:31.649Z,99.88
2023-04-29T04:05:32.486Z,99.92
2023-04-29T04:07:33.953Z,99.9
2023-04-29T04:09:35.041Z,99.9
2023-04-29T04:11:36.559Z,99.88
2023-04-29T04:15:38.957Z,99.9
2023-04-29T04:17:48.926Z,99.9
2023-04-29T04:19:41.349Z,99.88
2023-04-29T04:21:42.740Z,99.86
2023-04-29T04:25:47.304Z,99.87
2023-04-29T04:27:51.065Z,99.85
2023-04-29T04:31:50.276Z,99.85
2023-04-29T04:35:53.354Z,99.87
2023-04-29T04:37:54.647Z,99.85
2023-04-29T04:41:57.269Z,99.82
2023-04-29T04:46:00.098Z,99.85
2023-04-29T04:48:01.713Z,99.86
2023-04-29T04:52:04.838Z,99.89
2023-04-29T04:54:06.045Z,99.87
2023-04-29T04:58:09.056Z,99.86
2023-04-29T05:02:11.482Z,99.88
2023-04-29T05:04:13.187Z,99.78
2023-04-29T05:08:16.331Z,99.77
2023-04-29T05:10:17.604Z,99.76
2023-04-29T05:14:19.907Z,99.8
2023-04-29T05:18:23.087Z,99.78
2023-04-29T05:20:24.585Z,99.76
2023-04-29T05:24:27.230Z,99.77
2023-04-29T05:28:30.136Z,99.79
2023-04-29T05:30:31.680Z,99.83
2023-04-29T05:34:34.696Z,99.83
2023-04-29T05:36:35.833Z,99.87
2023-04-29T05:38:37.091Z,99.87
2023-04-29T05:40:38.614Z,99.86
2023-04-29T05:44:41.177Z,99.87
2023-04-29T05:46:42.800Z,99.87
2023-04-29T05:50:45.885Z,99.84
2023-04-29T05:52:47.616Z,99.83
2023-04-29T05:56:51.142Z,99.81
2023-04-29T06:00:53.600Z,99.83
2023-04-29T06:02:58.934Z,99.9
2023-04-29T06:06:58.518Z,99.93
2023-04-29T06:11:01.530Z,99.84
2023-04-29T06:13:02.537Z,99.85
2023-04-29T06:17:05.521Z,99.8
2023-04-29T06:19:07.190Z,99.85
2023-04-29T06:21:08.152Z,99.81
2023-04-29T06:23:09.548Z,99.74
2023-04-29T06:27:12.922Z,99.65
2023-04-29T06:29:14.529Z,99.69
2023-04-29T06:31:16.372Z,99.73
2023-04-29T06:33:17.581Z,99.69
2023-04-29T06:35:18.823Z,99.68
2023-04-29T06:39:21.175Z,99.57
2023-04-29T06:41:22.145Z,99.55
2023-04-29T06:43:23.278Z,99.52
2023-04-29T06:45:24.203Z,99.43
2023-04-29T06:49:26.807Z,99.47
2023-04-29T06:51:28.289Z,99.4
2023-04-29T06:55:31.489Z,99.18
2023-04-29T06:59:34.267Z,99.28
2023-04-29T07:01:35.177Z,99
2023-04-29T07:05:37.921Z,98.99
2023-04-29T07:09:39.956Z,98.28
2023-04-29T07:11:41.071Z,97.55
2023-04-29T07:15:44.417Z,96.33
2023-04-29T07:17:45.754Z,95.81
2023-04-29T07:21:49.234Z,94.78
2023-04-29T07:25:51.139Z,93.47
2023-04-29T07:27:52.324Z,92.98
2023-04-29T07:31:55.448Z,90.97
2023-04-29T07:33:57.009Z,90.91
2023-04-29T07:38:00.060Z,89.88
2023-04-29T07:42:03.176Z,90.11
2023-04-29T07:44:04.420Z,89.64
2023-04-29T07:48:06.819Z,89.51
2023-04-29T07:52:09.066Z,89.3
2023-04-29T07:54:10.405Z,88.95
2023-04-29T07:58:12.318Z,89.14
2023-04-29T08:00:13.839Z,88.54
2023-04-29T08:02:15.360Z,88.24
2023-04-29T08:04:16.361Z,86.57
2023-04-29T08:08:19.248Z,86.56
2023-04-29T08:10:20.612Z,85.58
2023-04-29T08:12:21.724Z,86.54
2023-04-29T08:14:22.653Z,86.52
2023-04-29T08:16:24.400Z,84.79
2023-04-29T08:20:26.653Z,80.3
2023-04-29T08:22:28.427Z,80.9
2023-04-29T08:24:30.150Z,80.36
2023-04-29T08:26:31.643Z,79.55
2023-04-29T08:30:33.770Z,79.63
2023-04-29T08:32:34.908Z,79.78
2023-04-29T08:36:37.439Z,80.84
2023-04-29T08:40:40.250Z,81.06
2023-04-29T08:42:41.991Z,81.92
2023-04-29T08:46:44.095Z,79.82
2023-04-29T08:50:47.420Z,80.77
2023-04-29T08:52:48.415Z,78.94
2023-04-29T08:56:51.056Z,78.43
2023-04-29T08:58:52.648Z,78.24
2023-04-29T09:02:56.003Z,76.51
2023-04-29T09:06:57.854Z,75.55
2023-04-29T09:08:59.193Z,75.97
2023-04-29T09:13:01.965Z,78.11
2023-04-29T09:15:03.363Z,76.17
2023-04-29T09:19:06.668Z,76.37
2023-04-29T09:23:10.193Z,76.17
2023-04-29T09:25:11.683Z,74.78
2023-04-29T09:29:14.349Z,75.54
2023-04-29T09:33:16.325Z,73.04
2023-04-29T09:35:17.329Z,73.87
2023-04-29T09:39:20.449Z,73.41
2023-04-29T09:41:21.539Z,73.37
2023-04-29T09:45:23.534Z,75.3
2023-04-29T09:49:26.155Z,72.86
2023-04-29T09:51:26.985Z,72.86
2023-04-29T09:55:29.755Z,72.02
2023-04-29T09:57:30.749Z,71.44
2023-04-29T10:01:33.872Z,70.63
2023-04-29T10:05:37.160Z,68.94
2023-04-29T10:07:38.924Z,70.44
2023-04-29T10:11:41.801Z,69.98
2023-04-29T10:17:44.594Z,71.44
2023-04-29T10:21:47.593Z,68
2023-04-29T10:26:33.515Z,69.8
2023-04-29T10:28:34.735Z,70.15
2023-04-29T10:32:49.577Z,69.5
2023-04-29T10:34:39.582Z,68.97
2023-04-29T10:38:42.209Z,69.62
2023-04-29T10:42:44.243Z,70.6
2023-04-29T10:44:45.265Z,70.58
2023-04-29T10:48:47.990Z,72.3
2023-04-29T10:50:49.825Z,72.83
2023-04-29T10:54:52.859Z,72.96
2023-04-29T10:58:55.122Z,73.32
2023-04-29T11:00:56.393Z,72.72
2023-04-29T11:04:58.589Z,71.58
2023-04-29T11:09:01.030Z,68.4
2023-04-29T11:11:02.319Z,67.43
2023-04-29T11:15:05.197Z,69.4
2023-04-29T11:17:06.593Z,71.06
2023-04-29T11:21:09.486Z,69.15
2023-04-29T11:25:12.067Z,69.34
2023-04-29T11:27:13.456Z,71.02
2023-04-29T11:31:15.301Z,69.93
2023-04-29T11:33:16.557Z,71.11
2023-04-29T11:37:18.867Z,71.27
2023-04-29T11:39:19.675Z,72.85
2023-04-29T11:41:20.999Z,70.03
2023-04-29T11:43:22.279Z,70.14
2023-04-29T11:47:25.388Z,69.54
2023-04-29T11:49:27.036Z,68.57
2023-04-29T11:53:29.575Z,68.71
2023-04-29T11:57:32.317Z,68.49
2023-04-29T11:59:33.425Z,69.84
2023-04-29T12:03:36.287Z,66.08
2023-04-29T12:07:39.685Z,66.4
2023-04-29T12:09:41.526Z,67.56
2023-04-29T12:13:44.466Z,67.08
2023-04-29T12:15:45.546Z,67.91
2023-04-29T12:19:48.285Z,69.73
2023-04-29T12:23:51.164Z,71.46
2023-04-29T12:25:52.687Z,70.29
2023-04-29T12:29:54.929Z,69.49
2023-04-29T12:31:56.775Z,69.3
2023-04-29T12:35:59.327Z,70.16
2023-04-29T12:40:02.223Z,71.03
2023-04-29T12:42:03.530Z,72.22
2023-04-29T12:46:05.683Z,71
2023-04-29T12:50:08.184Z,70.96
2023-04-29T12:52:09.487Z,71.23
2023-04-29T12:56:12.104Z,71.37
2023-04-29T12:58:13.156Z,71.64
2023-04-29T13:02:15.895Z,70.32
2023-04-29T13:06:18.336Z,70.41
2023-04-29T13:08:20.049Z,72.34
2023-04-29T13:12:22.735Z,69.28
2023-04-29T13:14:24.407Z,68.92
2023-04-29T13:18:27.096Z,70.28
2023-04-29T13:22:29.025Z,71.43
2023-04-29T13:24:30.166Z,70.5
2023-04-29T13:28:32.031Z,69.84
2023-04-29T13:32:43.522Z,70.05
2023-04-29T13:34:36.173Z,69.87
2023-04-29T13:38:39.309Z,69.91
2023-04-29T13:40:44.747Z,70.49
2023-04-29T13:42:47.099Z,69.91
2023-04-29T13:44:51.579Z,69.99
2023-04-29T13:51:23.072Z,69.4
2023-04-29T13:53:10.422Z,69
2023-04-29T13:55:04.046Z,68.11
2023-04-29T13:57:12.141Z,67.83
2023-04-29T14:04:57.029Z,68.25
2023-04-29T14:06:58.671Z,69.06
2023-04-29T14:11:01.365Z,69.03
2023-04-29T14:13:02.872Z,69.55
2023-04-29T14:17:05.652Z,70.04
2023-04-29T14:21:09.035Z,69.32
2023-04-29T14:23:10.254Z,70.19
2023-04-29T14:27:12.573Z,70.67
2023-04-29T14:31:15.564Z,68.67
2023-04-29T14:33:16.507Z,67.79
2023-04-29T14:37:18.671Z,68.74
2023-04-29T14:39:20.430Z,67.9
2023-04-29T14:43:22.739Z,68.2
2023-04-29T14:47:25.367Z,69.99
2023-04-29T14:49:26.415Z,72.22
2023-04-29T14:53:29.358Z,70.34
2023-04-29T14:55:31.360Z,69.89
2023-04-29T14:59:33.158Z,69.54
2023-04-29T15:03:43.398Z,70.16
2023-04-29T15:05:36.846Z,69.33
2023-04-29T15:09:39.736Z,69.79
2023-04-29T15:13:42.920Z,70.16
2023-04-29T15:15:44.458Z,69.3
2023-04-29T15:19:48.464Z,69.3
2023-04-29T15:21:49.341Z,69.45
2023-04-29T15:25:52.333Z,69.2
2023-04-29T15:29:55.212Z,71.55
2023-04-29T15:31:57.041Z,71.77
2023-04-29T15:35:59.523Z,72.78
2023-04-29T15:38:01.270Z,72.76
2023-04-29T15:42:04.066Z,72.62
2023-04-29T15:46:07.467Z,73.76
2023-04-29T15:48:08.401Z,73.93
2023-04-29T15:52:12.018Z,76.15
2023-04-29T15:56:14.619Z,74.58
2023-04-29T15:58:15.657Z,74.52
2023-04-29T16:02:18.672Z,74.47
2023-04-29T16:04:20.357Z,75.55
2023-04-29T16:08:23.179Z,73.39
2023-04-29T16:12:26.080Z,74.55
2023-04-29T16:14:27.348Z,73.95
2023-04-29T16:18:29.872Z,76.65
2023-04-29T16:20:31.284Z,75.78
2023-04-29T16:24:34.388Z,74.57
2023-04-29T16:28:37.397Z,75.5
2023-04-29T16:30:38.410Z,75.05
2023-04-29T16:34:41.188Z,76.33
2023-04-29T16:40:45.238Z,75.46
2023-04-29T16:44:47.630Z,76.03
2023-04-29T16:46:49.119Z,76
2023-04-29T16:50:52.000Z,78.59
2023-04-29T16:54:53.875Z,78.7
2023-04-29T16:56:55.233Z,78.17
2023-04-29T17:00:57.685Z,75.86
2023-04-29T17:02:59.424Z,77.74
2023-04-29T17:07:01.382Z,77.33
2023-04-29T17:11:48.756Z,77.66
2023-04-29T17:13:50.067Z,76.82
2023-04-29T17:17:52.221Z,76.57
2023-04-29T17:21:54.843Z,78.1
2023-04-29T17:23:55.761Z,77.99
2023-04-29T17:27:58.471Z,77.15
2023-04-29T17:32:01.413Z,77.79
2023-04-29T17:34:03.056Z,78.54
2023-04-29T17:38:05.968Z,78.48
2023-04-29T17:40:07.557Z,78
2023-04-29T17:44:10.115Z,78.04
2023-04-29T17:48:12.351Z,78.15
2023-04-29T17:50:13.582Z,78.53
2023-04-29T17:54:15.735Z,80.63
2023-04-29T17:56:17.130Z,80.13
2023-04-29T18:00:20.031Z,80.57
2023-04-29T18:04:22.861Z,81.7
2023-04-29T18:06:23.955Z,82.1
2023-04-29T18:10:26.619Z,80.71
2023-04-29T18:12:27.752Z,80.86
2023-04-29T18:16:30.249Z,80.75
2023-04-29T18:20:32.942Z,80.5
2023-04-29T18:22:34.663Z,80.06
2023-04-29T18:26:36.923Z,80.87
2023-04-29T18:30:39.298Z,80.93
2023-04-29T18:32:40.216Z,80.15
2023-04-29T18:36:42.990Z,81.15
2023-04-29T18:38:44.370Z,80.31
2023-04-29T18:42:47.311Z,80.93
2023-04-29T18:44:48.464Z,80.75
2023-04-29T18:48:50.744Z,80.54
2023-04-29T18:52:53.680Z,80.68
2023-04-29T18:54:55.556Z,81.04
2023-04-29T18:58:58.369Z,80.96
2023-04-29T19:03:01.661Z,80.73
2023-04-29T19:05:03.189Z,80.72
2023-04-29T19:09:06.130Z,81.33
2023-04-29T19:11:07.761Z,81.33
2023-04-29T19:15:10.458Z,81.58
2023-04-29T19:19:12.915Z,81.81
2023-04-29T19:21:13.885Z,81.92
2023-04-29T19:25:17.266Z,82.83
2023-04-29T19:27:18.717Z,82.81
2023-04-29T19:31:21.685Z,84.35
2023-04-29T19:35:23.805Z,84.58
2023-04-29T19:37:24.957Z,85.06
2023-04-29T19:41:28.372Z,85.52
2023-04-29T19:45:31.954Z,85.38
2023-04-29T19:47:33.387Z,84.39
2023-04-29T19:51:35.960Z,83.45
2023-04-29T19:53:37.868Z,83.85
2023-04-29T19:57:40.382Z,83.88
2023-04-29T20:01:43.623Z,83.72
2023-04-29T20:03:44.605Z,83.59
2023-04-29T20:07:46.596Z,81.82
2023-04-29T20:09:48.407Z,82.1
2023-04-29T20:13:50.534Z,82.25
2023-04-29T20:17:53.619Z,81.17
2023-04-29T20:19:55.119Z,81.19
2023-04-29T20:23:58.362Z,80.35
2023-04-29T20:28:00.767Z,81.06
2023-04-29T20:30:02.129Z,79.95
2023-04-29T20:34:04.298Z,79.77
2023-04-29T20:36:05.361Z,80.52
2023-04-29T20:38:06.503Z,80.53
2023-04-29T20:40:08.292Z,80.65
2023-04-29T20:44:10.445Z,80.97
2023-04-29T20:46:11.444Z,81.07
2023-04-29T20:48:13.032Z,80.15
2023-04-29T20:50:14.473Z,80.11
2023-04-29T20:52:16.094Z,80.88
2023-04-29T20:56:18.797Z,80.19
2023-04-29T21:00:21.114Z,82.08
2023-04-29T21:02:22.121Z,82.02
2023-04-29T21:06:25.087Z,83.13
2023-04-29T21:08:26.766Z,83.68
2023-04-29T21:12:29.645Z,82.14
2023-04-29T21:16:32.209Z,81.16
2023-04-29T21:18:33.407Z,81.1
2023-04-29T21:22:36.438Z,81.79
2023-04-29T21:26:39.686Z,82.6
2023-04-29T21:28:40.771Z,82.67
2023-04-29T21:32:43.560Z,81.86
2023-04-29T21:34:44.951Z,82.58
2023-04-29T21:38:47.865Z,82.88
2023-04-29T21:42:50.462Z,83.04
2023-04-29T21:44:51.870Z,82.9
2023-04-29T21:48:53.986Z,82.97
2023-04-29T21:50:55.814Z,82.45
2023-04-29T21:54:59.062Z,82.98
2023-04-29T21:59:02.578Z,83.01
2023-04-29T22:01:04.268Z,84.05
2023-04-29T22:05:07.139Z,83.28
2023-04-29T22:09:09.852Z,82.16
2023-04-29T22:11:10.862Z,81.96
2023-04-29T22:15:27.203Z,82.2
2023-04-29T22:17:15.540Z,82.43
2023-04-29T22:21:18.147Z,82.68
2023-04-29T22:25:20.074Z,82.84
2023-04-29T22:27:21.925Z,82.72
2023-04-29T22:31:25.278Z,83.1
2023-04-29T22:33:26.815Z,83.44
2023-04-29T22:37:30.012Z,83.26
2023-04-29T22:41:33.167Z,83.68
2023-04-29T22:43:34.879Z,84.63
2023-04-29T22:47:37.099Z,83.99
2023-04-29T22:51:39.433Z,84.01
2023-04-29T22:53:40.635Z,84.23
2023-04-29T22:57:44.086Z,85.42
2023-04-29T22:59:53.998Z,85.62
2023-04-29T23:03:48.771Z,85.17
2023-04-29T23:07:51.389Z,85.28
2023-04-29T23:09:52.646Z,85.36
2023-04-29T23:11:53.659Z,85.48
2023-04-29T23:13:55.178Z,85.58
2023-04-29T23:15:56.880Z,85.84
2023-04-29T23:19:59.324Z,85.8
2023-04-29T23:22:00.541Z,85.72
2023-04-29T23:24:02.134Z,85.84
2023-04-29T23:26:03.559Z,86.12
2023-04-29T23:30:06.116Z,86.25
2023-04-29T23:32:07.830Z,85.71
2023-04-29T23:36:10.329Z,85.79
2023-04-29T23:40:13.240Z,85.61
2023-04-29T23:42:14.872Z,85.9
2023-04-29T23:46:18.187Z,86.02
2023-04-29T23:50:20.201Z,87.16
2023-04-29T23:52:21.557Z,87.43
2023-04-29T23:57:08.005Z,87.4
